Time;durP1;ratioP1;P1;durP2;ratioP2;P2;SDS_P1;SDS_P2;PMS_P1;PMS_P2;Temp;Humidity;BMP_temperature;BMP_pressure;BME280_temperature;BME280_humidity;BME280_pressure;Samples;Min_cycle;Max_cycle;Signal;HPM_P1;HPM_P2
2022/06/15 00:05:54;;;;;;;;;;;;;;;;;;12611402;28;19916;-80
2022/06/15 00:11:56;;;;;;;;;;;;;;;;;;12628187;28;19926;-80
2022/06/15 00:17:57;;;;;;;;;;;;;;;;;;12578496;28;19927;-80
2022/06/15 00:23:59;;;;;;;;;;;;;;;;;;12578160;28;19916;-80
2022/06/15 00:30:00;;;;;;;;;;;;;;;;;;12598300;28;19946;-80
2022/06/15 00:36:02;;;;;;;;;;;;;;;;;;12602934;28;19908;-79
2022/06/15 00:42:03;;;;;;;;;;;;;;;;;;12599231;28;19915;-79
2022/06/15 00:48:04;;;;;;;;;;;;;;;;;;12593515;28;20293;-80
2022/06/15 00:54:06;;;;;;;;;;;;;;;;;;12596260;28;19913;-79
2022/06/15 01:00:07;;;;;;;;;;;;;;;;;;12603108;28;19908;-79
2022/06/15 01:06:09;;;;;;;;;;;;;;;;;;12605119;28;19916;-80
2022/06/15 01:12:11;;;;;;;;;;;;;;;;;;12603156;28;19916;-80
2022/06/15 01:18:12;;;;;;;;;;;;;;;;;;12636033;28;20373;-80
2022/06/15 01:24:17;;;;;;;;;;;;;;;;;;12635856;28;19986;-80
2022/06/15 01:30:20;;;;;;;;;;;;;;;;;;12618925;28;19908;-80
2022/06/15 01:36:21;;;;;;;;;;;;;;;;;;12635251;28;19914;-80
2022/06/15 01:42:23;;;;;;;;;;;;;;;;;;12635095;28;19908;-80
2022/06/15 01:48:24;;;;;;;;;;;;;;;;;;12634683;28;19920;-79
2022/06/15 01:54:26;;;;;;;;;;;;;;;;;;12634496;28;19994;-80
2022/06/15 02:00:27;;;;;;;;;;;;;;;;;;12617067;28;20364;-79
2022/06/15 02:06:29;;;;;;;;;;;;;;;;;;12651279;28;19939;-79
2022/06/15 02:12:31;;;;;;;;;;;;;;;;;;12616793;28;19912;-79
2022/06/15 02:18:33;;;;;;;;;;;;;;;;;;12616707;28;20288;-80
2022/06/15 02:24:34;;;;;;;;;;;;;;;;;;12616546;28;20289;-79
2022/06/15 02:30:36;;;;;;;;;;;;;;;;;;12632354;28;19912;-79
2022/06/15 02:36:40;;;;;;;;;;;;;;;;;;12616044;28;19908;-79
2022/06/15 02:42:41;;;;;;;;;;;;;;;;;;12632048;28;19915;-80
2022/06/15 02:48:48;;;;;;;;;;;;;;;;;;12615538;28;19927;-79
2022/06/15 02:54:50;;;;;;;;;;;;;;;;;;12614607;28;19912;-79
2022/06/15 03:00:57;;;;;;;;;;;;;;;;;;12632186;28;20368;-79
2022/06/15 03:07:01;;;;;;;;;;;;;;;;;;12634812;28;19923;-80
2022/06/15 03:13:03;;;;;;;;;;;;;;;;;;12635878;28;19925;-80
2022/06/15 03:19:04;;;;;;;;;;;;;;;;;;12649777;28;19912;-79
2022/06/15 03:25:06;;;;;;;;;;;;;;;;;;12632905;28;19916;-80
2022/06/15 03:31:09;;;;;;;;;;;;;;;;;;12615740;28;19908;-80
2022/06/15 03:37:11;;;;;;;;;;;;;;;;;;12615081;28;19942;-80
2022/06/15 03:43:12;;;;;;;;;;;;;;;;;;12615363;28;19908;-80
2022/06/15 03:49:15;;;;;;;;;;;;;;;;;;12631115;28;19920;-80
2022/06/15 03:55:19;;;;;;;;;;;;;;;;;;12631377;28;19915;-80
2022/06/15 04:01:21;;;;;;;;;;;;;;;;;;12631244;28;20269;-79
2022/06/15 04:13:43;;;;;;;;;;;;;;;;;;12631098;28;19916;-79
2022/06/15 04:20:31;;;;;;;;;;;;;;;;;;12630818;28;19912;-77
2022/06/15 04:26:07;;;;;;;;;;;;;;;;;;12657607;28;19931;-78
2022/06/15 04:32:20;;;;;;;;;;;;;;;;;;12629323;28;20294;-79
2022/06/15 04:38:23;;;;;;;;;;;;;;;;;;12627914;28;19908;-79
2022/06/15 04:44:32;;;;;;;;;;;;;;;;;;12611579;28;19920;-79
2022/06/15 04:50:34;;;;;;;;;;;;;;;;;;12644735;28;19912;-79
2022/06/15 04:56:36;;;;;;;;;;;;;;;;;;12627544;28;19908;-79
2022/06/15 05:02:42;;;;;;;;;;;;;;;;;;12628913;28;19931;-78
2022/06/15 05:08:44;;;;;;;;;;;;;;;;;;12609032;28;19916;-79
2022/06/15 05:14:49;;;;;;;;;;;;;;;;;;12611148;28;19916;-79
2022/06/15 05:20:51;;;;;;;;;;;;;;;;;;12630099;28;19916;-79
2022/06/15 05:26:55;;;;;;;;;;;;;;;;;;12609244;28;19923;-79
2022/06/15 05:32:57;;;;;;;;;;;;;;;;;;12625774;28;19912;-79
2022/06/15 05:38:58;;;;;;;;;;;;;;;;;;12644028;28;19908;-79
2022/06/15 05:45:02;;;;;;;;;;;;;;;;;;12617434;28;19923;-79
2022/06/15 05:51:05;;;;;;;;;;;;;;;;;;12615523;28;19912;-78
2022/06/15 05:57:06;;;;;;;;;;;;;;;;;;12616665;28;20264;-78
2022/06/15 06:03:08;;;;;;;;;;;;;;;;;;12633877;28;19908;-79
2022/06/15 06:09:12;;;;;;;;;;;;;;;;;;12636156;28;20391;-79
2022/06/15 06:15:14;;;;;;;;;;;;;;;;;;12632374;28;19916;-78
2022/06/15 06:21:15;;;;;;;;;;;;;;;;;;12649986;28;19919;-79
2022/06/15 06:27:17;;;;;;;;;;;;;;;;;;12643894;28;19920;-79
2022/06/15 06:33:18;;;;;;;;;;;;;;;;;;12626911;28;19912;-79
2022/06/15 06:39:20;;;;;;;;;;;;;;;;;;12646266;28;19908;-79
2022/06/15 06:45:21;;;;;;;;;;;;;;;;;;12624087;28;19923;-81
2022/06/15 06:51:22;;;;;;;;;;;;;;;;;;12633790;28;19912;-78
2022/06/15 06:57:24;;;;;;;;;;;;;;;;;;12658188;28;20363;-80
2022/06/15 07:03:25;;;;;;;;;;;;;;;;;;12661793;28;19915;-79
2022/06/15 07:09:27;;;;;;;;;;;;;;;;;;12629860;28;19920;-79
2022/06/15 07:15:29;;;;;;;;;;;;;;;;;;12649193;28;19938;-79
2022/06/15 07:21:30;;;;;;;;;;;;;;;;;;12648021;28;19912;-77
2022/06/15 07:27:32;;;;;;;;;;;;;;;;;;12647254;28;19920;-78
2022/06/15 07:33:33;;;;;;;;;;;;;;;;;;12647338;28;19908;-76
2022/06/15 07:39:35;;;;;;;;;;;;;;;;;;12646827;28;20379;-77
2022/06/15 07:45:37;;;;;;;;;;;;;;;;;;12629514;28;20407;-78
2022/06/15 07:51:39;;;;;;;;;;;;;;;;;;12611989;28;19919;-78
2022/06/15 07:57:41;;;;;;;;;;;;;;;;;;12645734;28;20267;-78
2022/06/15 08:03:42;;;;;;;;;;;;;;;;;;12626999;28;19915;-79
2022/06/15 08:09:44;;;;;;;;;;;;;;;;;;12626727;28;19923;-79
2022/06/15 08:15:45;;;;;;;;;;;;;;;;;;12646452;28;19943;-77
2022/06/15 08:21:47;;;;;;;;;;;;;;;;;;12644923;28;20384;-78
2022/06/15 08:27:48;;;;;;;;;;;;;;;;;;12645352;28;19941;-76
2022/06/15 08:33:50;;;;;;;;;;;;;;;;;;12626000;28;19912;-77
2022/06/15 08:39:51;;;;;;;;;;;;;;;;;;12644759;28;19915;-76
2022/06/15 08:45:53;;;;;;;;;;;;;;;;;;12627148;28;19923;-77
2022/06/15 08:51:54;;;;;;;;;;;;;;;;;;12626356;28;19912;-77
2022/06/15 08:57:55;;;;;;;;;;;;;;;;;;12644513;28;19940;-78
2022/06/15 09:03:57;;;;;;;;;;;;;;;;;;12644330;28;20304;-78
2022/06/15 09:09:58;;;;;;;;;;;;;;;;;;12645753;28;19912;-78
2022/06/15 09:16:00;;;;;;;;;;;;;;;;;;12643579;28;20264;-79
2022/06/15 09:22:01;;;;;;;;;;;;;;;;;;12635113;28;19912;-79
2022/06/15 09:28:03;;;;;;;;;;;;;;;;;;12652246;28;19916;-78
2022/06/15 09:34:04;;;;;;;;;;;;;;;;;;12634811;28;19908;-85
2022/06/15 09:40:06;;;;;;;;;;;;;;;;;;12634531;28;19908;-84
2022/06/15 09:46:07;;;;;;;;;;;;;;;;;;12654223;28;19927;-83
2022/06/15 09:52:09;;;;;;;;;;;;;;;;;;12651422;28;19919;-82
2022/06/15 09:58:10;;;;;;;;;;;;;;;;;;12634495;28;19908;-83
2022/06/15 10:04:12;;;;;;;;;;;;;;;;;;12617524;28;20368;-83
2022/06/15 10:10:13;;;;;;;;;;;;;;;;;;12615852;28;19908;-83
2022/06/15 10:16:15;;;;;;;;;;;;;;;;;;12616113;28;19916;-83
2022/06/15 10:22:16;;;;;;;;;;;;;;;;;;12633088;28;20380;-83
2022/06/15 10:28:18;;;;;;;;;;;;;;;;;;12616639;28;19916;-83
2022/06/15 10:34:20;;;;;;;;;;;;;;;;;;12651410;28;19931;-83
2022/06/15 10:40:21;;;;;;;;;;;;;;;;;;12653985;28;19900;-81
2022/06/15 10:46:23;;;;;;;;;;;;;;;;;;12645839;28;19920;-83
2022/06/15 10:52:24;;;;;;;;;;;;;;;;;;12650525;28;19908;-83
2022/06/15 11:04:46;;;;;;;;;;;;;;;;;;12649364;28;19923;-83
2022/06/15 11:10:48;;;;;;;;;;;;;;;;;;12631250;28;19908;-82
2022/06/15 11:23:10;;;;;;;;;;;;;;;;;;12631220;28;20364;-83
2022/06/15 11:29:11;;;;;;;;;;;;;;;;;;12649814;28;20360;-82
2022/06/15 11:35:13;;;;;;;;;;;;;;;;;;12648622;28;19907;-81
2022/06/15 11:41:14;;;;;;;;;;;;;;;;;;12647398;28;19915;-81
2022/06/15 11:47:15;;;;;;;;;;;;;;;;;;12624157;28;20403;-82
2022/06/15 11:53:17;;;;;;;;;;;;;;;;;;12630256;28;20438;-82
2022/06/15 11:59:18;;;;;;;;;;;;;;;;;;12628729;28;20283;-81
2022/06/15 12:05:20;;;;;;;;;;;;;;;;;;12611952;28;19922;-82
2022/06/15 12:17:42;;;;;;;;;;;;;;;;;;12621420;28;19943;-82
2022/06/15 12:23:44;;;;;;;;;;;;;;;;;;12607412;28;19907;-82
2022/06/15 12:29:47;;;;;;;;;;;;;;;;;;12644565;28;19916;-82
2022/06/15 12:35:49;;;;;;;;;;;;;;;;;;12645370;28;19908;-83
2022/06/15 12:42:09;;;;;;;;;;;;;;;;;;12648922;28;19919;-83
2022/06/15 12:48:10;;;;;;;;;;;;;;;;;;12647524;28;19943;-82
2022/06/15 12:54:12;;;;;;;;;;;;;;;;;;12656385;28;19915;-82
2022/06/15 13:00:13;;;;;;;;;;;;;;;;;;12636458;28;19908;-82
2022/06/15 13:06:15;;;;;;;;;;;;;;;;;;12654765;28;19927;-82
2022/06/15 13:12:17;;;;;;;;;;;;;;;;;;12635853;28;19942;-82
2022/06/15 13:18:19;;;;;;;;;;;;;;;;;;12658162;28;19896;-81
2022/06/15 13:24:20;;;;;;;;;;;;;;;;;;12672530;28;19927;-80
2022/06/15 13:30:22;;;;;;;;;;;;;;;;;;12644573;28;20376;-80
2022/06/15 13:36:43;;;;;;;;;;;;;;;;;;12628744;28;19907;-80
2022/06/15 13:42:44;;;;;;;;;;;;;;;;;;12642107;28;19935;-77
2022/06/15 13:48:46;;;;;;;;;;;;;;;;;;12618278;28;19924;-77
2022/06/15 13:54:49;;;;;;;;;;;;;;;;;;12626053;28;19912;-76
2022/06/15 14:00:50;;;;;;;;;;;;;;;;;;12608957;28;20364;-81
2022/06/15 14:07:07;;;;;;;;;;;;;;;;;;12606199;28;19924;-81
2022/06/15 14:13:09;;;;;;;;;;;;;;;;;;12630983;28;19920;-79
2022/06/15 14:19:11;;;;;;;;;;;;;;;;;;12621870;28;19908;-78
2022/06/15 14:25:12;;;;;;;;;;;;;;;;;;12645877;28;19928;-78
2022/06/15 14:31:14;;;;;;;;;;;;;;;;;;12613339;28;19908;-82
2022/06/15 14:37:15;;;;;;;;;;;;;;;;;;12616397;28;19915;-79
2022/06/15 14:43:19;;;;;;;;;;;;;;;;;;12622952;28;19923;-78
2022/06/15 14:49:20;;;;;;;;;;;;;;;;;;12597389;28;19923;-76
2022/06/15 14:55:22;;;;;;;;;;;;;;;;;;12624535;28;19916;-79
2022/06/15 15:01:24;;;;;;;;;;;;;;;;;;12609165;28;20288;-82
2022/06/15 15:13:46;;;;;;;;;;;;;;;;;;12618150;28;19938;-77
2022/06/15 15:19:47;;;;;;;;;;;;;;;;;;12632847;28;20380;-79
2022/06/15 15:25:50;;;;;;;;;;;;;;;;;;12610166;28;19924;-80
2022/06/15 15:38:23;;;;;;;;;;;;;;;;;;12677587;27;19916;-78
2022/06/15 15:44:25;;;;;;;;;;;;;;;;;;12672220;28;20397;-79
2022/06/15 15:50:26;;;;;;;;;;;;;;;;;;12638591;28;19927;-79
2022/06/15 15:56:28;;;;;;;;;;;;;;;;;;12637661;28;19920;-78
2022/06/15 16:02:29;;;;;;;;;;;;;;;;;;12634978;28;20006;-78
2022/06/15 16:08:31;;;;;;;;;;;;;;;;;;12636133;28;19920;-79
2022/06/15 16:14:32;;;;;;;;;;;;;;;;;;12636075;28;19931;-78
2022/06/15 16:20:34;;;;;;;;;;;;;;;;;;12634536;28;19920;-78
2022/06/15 16:26:35;;;;;;;;;;;;;;;;;;12634418;28;19924;-78
2022/06/15 16:32:37;;;;;;;;;;;;;;;;;;12637369;28;19923;-77
2022/06/15 16:38:38;;;;;;;;;;;;;;;;;;12692308;28;20384;-80
2022/06/15 16:44:41;;;;;;;;;;;;;;;;;;12670601;28;19912;-82
2022/06/15 16:50:43;;;;;;;;;;;;;;;;;;12652359;28;19912;-78
2022/06/15 16:56:45;;;;;;;;;;;;;;;;;;12651166;28;19927;-77
2022/06/15 17:02:46;;;;;;;;;;;;;;;;;;12651082;28;20400;-78
2022/06/15 17:08:48;;;;;;;;;;;;;;;;;;12650293;28;19920;-78
2022/06/15 17:14:50;;;;;;;;;;;;;;;;;;12632367;28;19924;-78
2022/06/15 17:20:52;;;;;;;;;;;;;;;;;;12650348;28;20193;-78
2022/06/15 17:26:53;;;;;;;;;;;;;;;;;;12632278;28;20006;-79
2022/06/15 17:32:55;;;;;;;;;;;;;;;;;;12630746;28;20373;-79
2022/06/15 17:38:56;;;;;;;;;;;;;;;;;;12648984;28;20300;-78
2022/06/15 17:44:57;;;;;;;;;;;;;;;;;;12648954;28;19924;-79
2022/06/15 17:50:59;;;;;;;;;;;;;;;;;;12647375;28;19912;-79
2022/06/15 17:57:00;;;;;;;;;;;;;;;;;;12647336;28;19921;-78
2022/06/15 18:03:02;;;;;;;;;;;;;;;;;;12629924;28;19923;-78
2022/06/15 18:09:03;;;;;;;;;;;;;;;;;;12629322;28;19912;-78
2022/06/15 18:15:05;;;;;;;;;;;;;;;;;;12647205;28;19927;-78
2022/06/15 18:21:06;;;;;;;;;;;;;;;;;;12629188;28;20333;-79
2022/06/15 18:27:08;;;;;;;;;;;;;;;;;;12646865;28;19919;-78
2022/06/15 18:33:09;;;;;;;;;;;;;;;;;;12646237;28;19924;-79
2022/06/15 18:39:11;;;;;;;;;;;;;;;;;;12645944;28;19919;-78
2022/06/15 18:51:33;;;;;;;;;;;;;;;;;;12645707;28;19927;-79
2022/06/15 18:57:34;;;;;;;;;;;;;;;;;;12644299;28;20301;-78
2022/06/15 19:03:36;;;;;;;;;;;;;;;;;;12628101;28;19920;-78
2022/06/15 19:09:38;;;;;;;;;;;;;;;;;;12648250;28;19912;-79
2022/06/15 19:15:39;;;;;;;;;;;;;;;;;;12648306;28;19927;-78
2022/06/15 19:21:40;;;;;;;;;;;;;;;;;;12643779;28;20257;-77
2022/06/15 19:27:42;;;;;;;;;;;;;;;;;;12644961;28;19919;-78
2022/06/15 19:33:43;;;;;;;;;;;;;;;;;;12625607;28;19924;-79
2022/06/15 19:39:45;;;;;;;;;;;;;;;;;;12643015;28;19913;-79
2022/06/15 19:45:46;;;;;;;;;;;;;;;;;;12642653;28;19923;-79
2022/06/15 19:51:48;;;;;;;;;;;;;;;;;;12642411;28;20380;-79
2022/06/15 19:57:50;;;;;;;;;;;;;;;;;;12626063;28;19920;-78
2022/06/15 20:03:51;;;;;;;;;;;;;;;;;;12643254;28;20379;-78
2022/06/15 20:09:53;;;;;;;;;;;;;;;;;;12644609;28;19913;-79
2022/06/15 20:15:54;;;;;;;;;;;;;;;;;;12625331;28;19927;-79
2022/06/15 20:21:56;;;;;;;;;;;;;;;;;;12629762;28;20392;-79
2022/06/15 20:27:57;;;;;;;;;;;;;;;;;;12653610;28;19912;-78
2022/06/15 20:33:59;;;;;;;;;;;;;;;;;;12653076;28;19924;-79
2022/06/15 20:40:01;;;;;;;;;;;;;;;;;;12650941;28;19917;-78
2022/06/15 20:46:05;;;;;;;;;;;;;;;;;;12633749;28;19912;-78
2022/06/15 20:52:06;;;;;;;;;;;;;;;;;;12651589;28;19916;-79
2022/06/15 20:58:08;;;;;;;;;;;;;;;;;;12651061;28;20280;-77
2022/06/15 21:04:09;;;;;;;;;;;;;;;;;;12647330;28;19923;-78
2022/06/15 21:22:51;;;;;;;;;;;;;;;;;;12647636;28;19939;-78
2022/06/15 21:28:53;;;;;;;;;;;;;;;;;;12646888;28;19920;-78
2022/06/15 21:34:55;;;;;;;;;;;;;;;;;;12627744;28;19924;-78
2022/06/15 21:40:56;;;;;;;;;;;;;;;;;;12646347;28;20350;-78
2022/06/15 21:46:58;;;;;;;;;;;;;;;;;;12645737;28;19919;-79
2022/06/15 21:52:59;;;;;;;;;;;;;;;;;;12649875;28;19919;-78
2022/06/15 21:59:00;;;;;;;;;;;;;;;;;;12644605;28;20120;-78
2022/06/15 22:05:02;;;;;;;;;;;;;;;;;;12627516;28;19923;-78
2022/06/15 22:11:04;;;;;;;;;;;;;;;;;;12626792;28;19912;-78
2022/06/15 22:17:06;;;;;;;;;;;;;;;;;;12644862;28;20388;-78
2022/06/15 22:23:07;;;;;;;;;;;;;;;;;;12626105;28;20352;-78
2022/06/15 22:29:09;;;;;;;;;;;;;;;;;;12625736;28;19919;-78
2022/06/15 22:35:10;;;;;;;;;;;;;;;;;;12625691;28;19974;-78
2022/06/15 22:41:12;;;;;;;;;;;;;;;;;;12625865;28;19916;-78
2022/06/15 22:47:13;;;;;;;;;;;;;;;;;;12646978;28;19912;-77
2022/06/15 22:53:15;;;;;;;;;;;;;;;;;;12626658;28;19922;-78
2022/06/15 22:59:16;;;;;;;;;;;;;;;;;;12643453;28;19927;-78
2022/06/15 23:05:18;;;;;;;;;;;;;;;;;;12642852;28;20384;-78
2022/06/15 23:11:19;;;;;;;;;;;;;;;;;;12641897;28;19913;-77
2022/06/15 23:17:21;;;;;;;;;;;;;;;;;;12623719;28;20300;-79
2022/06/15 23:23:22;;;;;;;;;;;;;;;;;;12623679;28;19913;-79
2022/06/15 23:29:25;;;;;;;;;;;;;;;;;;12641639;28;19920;-78
2022/06/15 23:35:27;;;;;;;;;;;;;;;;;;12623303;28;19935;-78
2022/06/15 23:47:48;;;;;;;;;;;;;;;;;;12623203;28;19912;-78
2022/06/15 23:53:50;;;;;;;;;;;;;;;;;;12640032;28;19921;-79
2022/06/15 23:59:51;;;;;;;;;;;;;;;;;;12632694;28;19917;-79
